AirNav   Everest Fuels
 
 1134 users online  

L88 New Cuyama Airport
New Cuyama, California, USA

GOING TO NEW CUYAMA?


FAA INFORMATION EFFECTIVE 21 MAY 2020

Location

FAA Identifier: L88
Lat/Long: 34-56-23.8000N 119-41-08.1000W
34-56.396667N 119-41.135000W
34.9399444,-119.6855833
(estimated)
Elevation: 2203 ft. / 671 m (estimated)
Variation: 14E (1985)
Time zone: UTC -7 (UTC -8 during Standard Time)
Zip code: 93254

Airport Operations

Airport use: CLOSED INDEFINITELY
Activation date: 09/1950
Control tower: no
ARTCC: LOS ANGELES CENTER
FSS: RANCHO MURIETA FLIGHT SERVICE STATION
NOTAMs facility: RIU (NOTAM-D service available)
Attendance: UNATNDD
Wind indicator: yes
Segmented circle: yes

Airport Communications

CTAF: 122.9

Nearby radio navigation aids

VOR radial/distance  VOR name  Freq  Var
FLWr120/12.8FELLOWS VOR/DME117.5016E
RZSr355/26.2SAN MARCUS VORTAC114.9014E
GVOr023/31.6GAVIOTA VORTAC113.8016E

Airport Services

Parking: tiedowns
Airframe service: NONE
Powerplant service: NONE
Bottled oxygen: NONE
Bulk oxygen: NONE

Runway Information

Runway 10/28

Dimensions: 3940 x 60 ft. / 1201 x 18 m
Surface: asphalt, in poor condition
RUNWAY 10  RUNWAY 28
Latitude: 34-56.541333N34-56.251667N
Longitude: 119-41.488833W119-40.782667W
Traffic pattern: rightleft
Markings: basic, in fair conditionbasic, in fair condition
Runway end identifier lights: nono
Obstructions: 20 ft. tree, 250 ft. from runway, 2:1 slope to clear4 ft. fence, 200 ft. from runway, 80 ft. left of centerline

Airport Ownership and Management from official FAA records

Ownership: Privately-owned
Owner: BLUE SKY SUSTAINABLE LIVING CENTER
P.O. BOX 271
NEW CUYAMA, CA 93254
Phone 661-413-3005
Manager: EMILY JOHNSON
PO BOX 271
NEW CUYAMA, CA 93254
Phone 805-770-0926

Airport Operational Statistics

Aircraft operations: avg 42/month *
100% transient general aviation
* for 12-month period ending 17 June 2019

Additional Remarks

ACFT PRKG 125 FT N OF RWY CNTRLN AT RWY 10 APCH END.
RWY 10 +25 FT PWR POLES & PLINES RUN PARTIALLY UNDERGROUND 270 FT BYD RWY END, 164 FT R OF CNTRLN.
FOR CD CTC LOS ANGELES ARTCC AT 661-575-2079.
(ARPT STATUS) ARPT CLSD INDEFLY.

Instrument Procedures

There are no published instrument procedures at L88.

Some nearby airports with instrument procedures:

KIZA - Santa Ynez Airport (28 nm SW)
KSBA - Santa Barbara Municipal Airport (32 nm S)
KSMX - Santa Maria Public Airport/Capt G Allan Hancock Field (38 nm W)
L45 - Bakersfield Municipal Airport (41 nm NE)
KMIT - Shafter Airport-Minter Field (42 nm NE)
 
Loc | Ops | Rwys | IFR | FBO | Links
Com | Nav | Svcs | Stats | Notes
Area around L88 (New Cuyama Airport)
 
Road maps at: MapQuest Bing Google
 
Aerial photo
WARNING: Photo may not be current or correct
Aerial photo of L88 (New Cuyama Airport)
Photo taken 03-Mar-2016
looking west.

Do you have a better or more recent aerial photo of New Cuyama Airport that you would like to share? If so, please send us your photo.

 
Sectional chart

 
Airport distance calculator
Flying to New Cuyama Airport? Find the distance to fly.

From to L88

Sunrise and sunset
Times for 05-Jun-2020
 Local
(UTC-7)
 Zulu
(UTC)
Morning civil twilight05:1612:16
Sunrise05:4612:46
Sunset20:0903:09
Evening civil twilight20:3803:38

Current date and time
Zulu (UTC)  05-Jun-2020 22:14:28
Local (UTC-7)  05-Jun-2020 15:14:28
 
METAR
KIZA 
28nm SW 
052155Z AUTO 21003KT 10SM OVC029 19/12 A2986 RMK AO2
KSBA 
31nm S 
052153Z 04004KT 9SM BKN025 OVC040 20/13 A2985 RMK AO2 SLP108 T02000128
KSMX 
38nm W 
052151Z 26009G17KT 10SM OVC027 19/12 A2987 RMK AO2 SLP115 T01890122
KLPC 
42nm SW 
052156Z AUTO 29009KT 10SM OVC033 19/14 A2986 RMK AO2 SLP111 T01890139
KBFL 
43nm NE 
052154Z 33012KT 10SM CLR 28/11 A2971 RMK AO2 LTG DSNT E RAB15E29 SLP053 P0000 T02830106
KL52 
47nm W 
052155Z AUTO 3SM HZ OVC035 18/15 A2987 RMK A01
KVBG 
47nm SW 
052158Z AUTO 32007KT 10SM FEW012 OVC029 17/14 A2987 RMK AO2 SLP117 T01730139
KSDB 
49nm E 
052153Z AUTO 16021G29KT 10SM 15/09 A2988 RMK AO2 PK WND 16029/2150 SLP074 T01500094 $
KSBP 
50nm W 
052156Z 32010KT 10SM OVC031 19/13 A2986 RMK AO2 SLP109 T01890128
TAF
KSBA 
31nm S 
051740Z 0518/0618 11006KT 5SM BR BKN009 OVC022 FM051900 14008KT P6SM SCT010 OVC025 FM052200 22009KT P6SM BKN030 FM060300 VRB03KT 6SM BR OVC025 FM060800 VRB03KT 4SM BR OVC015 FM061300 VRB03KT 5SM -DZ BR OVC020 FM061730 VRB05KT P6SM SCT015 OVC025
KSMX 
38nm W 
051740Z 0518/0618 VRB05KT 6SM BR BKN005 OVC015 FM052000 28012KT P6SM BKN025 FM060200 30006KT P6SM OVC020 FM060500 VRB03KT P6SM OVC015 FM060900 VRB03KT 6SM BR OVC005 FM061200 VRB03KT 2SM -DZ BR OVC010 FM061700 VRB05KT 4SM BR BKN005 OVC015
NOTAMs
Click for the latest NOTAMs
NOTAMs are issued by the DoD/FAA and will open in a separate window not controlled by AirNav.

 

 
 

Would you like to see your business listed on this page?

 If your business provides an interesting product or service to pilots, flight crews, aircraft, or users of the New Cuyama Airport, you should consider listing it here.  To start the listing process, click on the button below
 
Add a business
 

Other Pages about New Cuyama Airport

Update a link
 
Copyright © AirNav, LLC. All rights reserved. Privacy Policy  Contact